Terminal Aerodrome Forecast
Issued by NWS Cleveland, OH

Home | Current Version | Previous Version | Graphics & Text | Print | Product List | Glossary On
Versions: 1 2 3 4 5 6 7 8 9 10 11 12 13 14 15 16 17 18 19 20 21 22 23 24 25 26
000
FTUS41 KCLE 212300
TAFMFD
TAF
KMFD 212340Z 2200/2224 23006KT P6SM BKN030
     FM220100 23005KT P6SM SCT030
     FM220600 23005KT 5SM BR BKN030
      TEMPO 2210/2214 3SM TSRA OVC025CB
     FM221500 26006KT P6SM SCT020 OVC035=

USA.gov is the U.S. government's official web portal to all federal, state and local government web resources and services.